createdAt,value
2018-12-20T00:02:27.737Z,76.36
2018-12-20T00:07:31.070Z,76.43
2018-12-20T00:12:34.384Z,75.76
2018-12-20T00:17:43.109Z,76.24
2018-12-20T00:22:46.345Z,76.38
2018-12-20T00:27:49.658Z,75.90
2018-12-20T00:32:52.976Z,75.47
2018-12-20T00:37:56.302Z,75.88
2018-12-20T00:42:59.621Z,76.10
2018-12-20T00:48:02.844Z,76.04
2018-12-20T00:53:06.140Z,75.93
2018-12-20T00:58:09.363Z,75.72
2018-12-20T01:03:12.846Z,76.21
2018-12-20T01:08:16.038Z,76.53
2018-12-20T01:13:19.188Z,76.53
2018-12-20T01:18:22.365Z,76.36
2018-12-20T01:23:25.667Z,75.57
2018-12-20T01:28:29.098Z,75.94
2018-12-20T01:33:32.388Z,76.29
2018-12-20T01:38:35.882Z,76.11
2018-12-20T01:43:39.219Z,76.29
2018-12-20T01:48:42.645Z,75.78
2018-12-20T01:53:45.846Z,75.71
2018-12-20T01:58:49.008Z,75.74
2018-12-20T02:03:52.158Z,75.28
2018-12-20T02:08:55.357Z,76.73
2018-12-20T02:13:58.518Z,76.49
2018-12-20T02:19:01.993Z,76.12
2018-12-20T02:24:05.501Z,75.98
2018-12-20T02:29:08.732Z,75.50
2018-12-20T02:34:11.991Z,75.77
2018-12-20T02:39:15.355Z,75.91
2018-12-20T02:44:18.592Z,76.26
2018-12-20T02:49:22.018Z,76.21
2018-12-20T02:54:25.335Z,76.21
2018-12-20T02:59:28.726Z,76.26
2018-12-20T03:04:32.094Z,75.27
2018-12-20T03:09:35.365Z,75.06
2018-12-20T03:14:38.738Z,75.16
2018-12-20T03:19:42.096Z,74.93
2018-12-20T03:24:45.579Z,74.80
2018-12-20T03:29:49.080Z,74.79
2018-12-20T03:34:52.375Z,75.22
2018-12-20T03:39:56.843Z,75.10
2018-12-20T03:45:00.224Z,75.73
2018-12-20T03:50:03.757Z,75.07
2018-12-20T03:55:07.170Z,75.47
2018-12-20T04:00:10.425Z,75.43
2018-12-20T04:05:13.863Z,75.57
2018-12-20T04:10:17.336Z,75.54
2018-12-20T04:15:20.823Z,74.10
2018-12-20T04:20:24.004Z,74.28
2018-12-20T04:25:27.428Z,74.88
2018-12-20T04:30:30.784Z,74.60
2018-12-20T04:35:34.017Z,74.54
2018-12-20T04:40:37.348Z,74.78
2018-12-20T04:45:46.654Z,74.18
2018-12-20T04:50:45.947Z,74.75
2018-12-20T04:55:49.178Z,74.34
2018-12-20T05:00:52.453Z,74.58
2018-12-20T05:05:55.822Z,74.89
2018-12-20T05:10:59.339Z,74.65
2018-12-20T05:16:02.589Z,74.28
2018-12-20T05:21:05.789Z,74.50
2018-12-20T05:26:09.037Z,74.39
2018-12-20T05:31:12.298Z,74.31
2018-12-20T05:36:15.874Z,74.89
2018-12-20T05:41:19.201Z,74.73
2018-12-20T05:46:22.410Z,75.56
2018-12-20T05:51:25.823Z,74.85
2018-12-20T05:56:29.040Z,75.33
2018-12-20T06:01:32.183Z,75.32
2018-12-20T06:06:35.397Z,75.06
2018-12-20T06:11:38.749Z,75.02
2018-12-20T06:16:41.944Z,75.65
2018-12-20T06:21:45.181Z,75.26
2018-12-20T06:26:48.344Z,75.30
2018-12-20T06:31:51.562Z,75.41
2018-12-20T06:36:54.753Z,74.71
2018-12-20T06:41:57.965Z,74.70
2018-12-20T06:47:01.125Z,75.29
2018-12-20T06:52:04.313Z,75.25
2018-12-20T06:57:07.468Z,75.15
2018-12-20T07:02:10.625Z,75.05
2018-12-20T07:07:13.777Z,74.96
2018-12-20T07:12:17.067Z,75.46
2018-12-20T07:17:20.304Z,75.17
2018-12-20T07:22:23.519Z,75.05
2018-12-20T07:27:26.668Z,74.72
2018-12-20T07:32:29.834Z,74.81
2018-12-20T07:37:33.012Z,74.54
2018-12-20T07:42:36.192Z,74.18
2018-12-20T07:47:39.352Z,74.07
2018-12-20T07:52:42.504Z,73.55
2018-12-20T07:57:45.895Z,73.46
2018-12-20T08:02:49.112Z,72.85
2018-12-20T08:07:52.290Z,72.98
2018-12-20T08:12:55.513Z,72.91
2018-12-20T08:17:58.823Z,72.08
2018-12-20T08:23:02.009Z,72.71
2018-12-20T08:28:05.210Z,72.03
2018-12-20T08:33:08.401Z,71.46
2018-12-20T08:38:11.589Z,72.23
2018-12-20T08:43:14.801Z,72.23
2018-12-20T08:48:17.989Z,71.91
2018-12-20T08:53:21.218Z,72.24
2018-12-20T08:58:24.419Z,72.15
2018-12-20T09:03:27.592Z,72.11
2018-12-20T09:08:30.869Z,72.07
2018-12-20T09:13:34.092Z,72.43
2018-12-20T09:18:37.428Z,72.60
2018-12-20T09:23:40.637Z,72.83
2018-12-20T09:28:43.836Z,72.46
2018-12-20T09:33:47.024Z,72.34
2018-12-20T09:38:50.238Z,72.60
2018-12-20T09:43:53.410Z,72.30
2018-12-20T09:48:57.282Z,71.84
2018-12-20T09:54:00.527Z,70.91
2018-12-20T09:59:03.788Z,71.35
2018-12-20T10:04:07.002Z,71.43
2018-12-20T10:09:10.165Z,71.14
2018-12-20T10:14:13.378Z,71.08
2018-12-20T10:19:16.600Z,71.51
2018-12-20T10:24:19.828Z,72.56
2018-12-20T10:29:23.017Z,71.17
2018-12-20T10:34:26.238Z,70.41
2018-12-20T10:39:29.454Z,69.28
2018-12-20T10:44:32.742Z,69.45
2018-12-20T10:49:36.073Z,68.16
2018-12-20T10:54:39.254Z,66.66
2018-12-20T10:59:42.429Z,64.99
2018-12-20T11:04:50.990Z,66.86
2018-12-20T11:10:28.796Z,67.23
2018-12-20T11:15:31.956Z,68.35
2018-12-20T11:20:35.148Z,69.27
2018-12-20T11:25:38.398Z,70.03
2018-12-20T11:30:41.572Z,69.66
2018-12-20T11:35:44.724Z,69.95
2018-12-20T11:40:47.888Z,69.18
2018-12-20T11:45:51.041Z,69.18
2018-12-20T11:50:54.367Z,69.33
2018-12-20T11:55:57.529Z,69.96
2018-12-20T12:01:00.789Z,70.23
2018-12-20T12:06:04.669Z,70.37
2018-12-20T12:11:07.964Z,69.18
2018-12-20T12:16:11.184Z,69.35
2018-12-20T12:21:14.400Z,68.75
2018-12-20T12:26:17.560Z,68.97
2018-12-20T12:31:20.729Z,67.75
2018-12-20T12:36:23.892Z,68.26
2018-12-20T12:41:27.137Z,69.78
2018-12-20T12:46:30.307Z,70.16
2018-12-20T12:51:33.485Z,69.82
2018-12-20T12:56:36.646Z,70.29
2018-12-20T13:01:39.865Z,71.07
2018-12-20T13:06:43.085Z,71.14
2018-12-20T13:11:46.249Z,71.65
2018-12-20T13:16:49.436Z,72.02
2018-12-20T13:21:52.608Z,71.77
2018-12-20T13:26:56.149Z,71.52
2018-12-20T13:31:59.362Z,71.43
2018-12-20T13:37:02.534Z,71.80
2018-12-20T13:42:05.810Z,71.70
2018-12-20T13:47:09.098Z,72.25
2018-12-20T13:52:12.335Z,71.81
2018-12-20T13:57:15.606Z,72.18
2018-12-20T14:02:18.821Z,72.06
2018-12-20T14:07:22.022Z,71.83
2018-12-20T14:12:25.265Z,72.14
2018-12-20T14:17:28.479Z,71.81
2018-12-20T14:22:31.649Z,71.95
2018-12-20T14:27:34.863Z,72.16
2018-12-20T14:32:38.024Z,72.10
2018-12-20T14:37:41.279Z,72.34
2018-12-20T14:42:44.530Z,72.49
2018-12-20T14:47:47.805Z,72.46
2018-12-20T14:52:51.081Z,71.83
2018-12-20T14:57:54.268Z,71.68
2018-12-20T15:02:57.612Z,71.64
2018-12-20T15:08:00.805Z,71.75
2018-12-20T15:13:04.146Z,71.27
2018-12-20T15:18:07.406Z,71.09
2018-12-20T15:23:11.446Z,71.04
2018-12-20T15:28:14.726Z,71.10
2018-12-20T15:33:18.219Z,70.83
2018-12-20T15:38:21.833Z,70.96
2018-12-20T15:43:25.103Z,71.02
2018-12-20T15:48:28.269Z,71.47
2018-12-20T15:53:31.460Z,71.61
2018-12-20T15:58:34.617Z,71.57
2018-12-20T16:03:37.824Z,71.45
2018-12-20T16:08:41.051Z,71.39
2018-12-20T16:13:44.250Z,71.41
2018-12-20T16:18:47.411Z,71.06
2018-12-20T16:23:50.609Z,71.03
2018-12-20T16:28:53.809Z,71.56
2018-12-20T16:33:57.019Z,71.74
2018-12-20T16:39:00.239Z,72.06
2018-12-20T16:44:03.401Z,73.13
2018-12-20T16:49:13.545Z,73.29
2018-12-20T16:54:11.768Z,73.64
2018-12-20T16:59:14.929Z,74.48
2018-12-20T17:04:18.189Z,74.42
2018-12-20T17:09:21.437Z,73.58
2018-12-20T17:14:24.613Z,73.72
2018-12-20T17:19:27.832Z,73.97
2018-12-20T17:24:31.019Z,73.80
2018-12-20T17:29:34.229Z,74.17
2018-12-20T17:34:37.410Z,74.68
2018-12-20T17:39:40.570Z,76.10
2018-12-20T17:44:43.749Z,76.41
2018-12-20T17:49:46.953Z,75.86
2018-12-20T17:54:50.157Z,76.09
2018-12-20T17:59:53.415Z,75.64
2018-12-20T18:04:56.654Z,75.52
2018-12-20T18:09:59.888Z,75.07
2018-12-20T18:15:03.387Z,75.12
2018-12-20T18:20:09.472Z,75.61
2018-12-20T18:25:13.998Z,75.71
2018-12-20T18:30:18.652Z,74.92
2018-12-20T18:35:23.096Z,74.64
2018-12-20T18:40:27.709Z,74.90
2018-12-20T18:45:32.328Z,74.85
2018-12-20T18:50:35.752Z,74.46
2018-12-20T18:55:39.144Z,73.97
2018-12-20T19:00:42.382Z,73.83
2018-12-20T19:05:45.553Z,73.79
2018-12-20T19:10:48.740Z,73.08
2018-12-20T19:15:51.907Z,73.64
2018-12-20T19:20:55.071Z,73.20
2018-12-20T19:25:58.255Z,72.86
2018-12-20T19:31:02.384Z,72.63
2018-12-20T19:36:06.287Z,72.39
2018-12-20T19:41:10.101Z,72.19
2018-12-20T19:46:15.604Z,71.55
2018-12-20T19:51:20.201Z,71.51
2018-12-20T19:56:25.012Z,71.14
2018-12-20T20:01:29.693Z,71.38
2018-12-20T20:06:34.338Z,70.71
2018-12-20T20:11:38.996Z,71.06
2018-12-20T20:16:50.599Z,70.40
2018-12-20T20:21:50.144Z,70.62
2018-12-20T20:26:54.846Z,70.33
2018-12-20T20:31:58.081Z,70.58
2018-12-20T20:37:01.274Z,70.57
2018-12-20T20:42:04.509Z,70.50
2018-12-20T20:47:08.511Z,70.24
2018-12-20T20:52:11.776Z,70.06
2018-12-20T20:57:14.961Z,70.46
2018-12-20T21:02:18.275Z,70.50
2018-12-20T21:07:21.889Z,70.98
2018-12-20T21:12:25.169Z,70.24
2018-12-20T21:17:28.430Z,70.39
2018-12-20T21:22:31.718Z,70.42
2018-12-20T21:27:34.957Z,70.60
2018-12-20T21:32:38.258Z,70.75
2018-12-20T21:37:41.522Z,70.72
2018-12-20T21:42:44.722Z,70.81
2018-12-20T21:47:47.904Z,71.03
2018-12-20T21:52:51.182Z,70.90
2018-12-20T21:57:54.340Z,71.08
2018-12-20T22:02:57.515Z,70.84
2018-12-20T22:08:00.686Z,71.64
2018-12-20T22:13:03.917Z,71.75
2018-12-20T22:25:49.236Z,71.45
2018-12-20T22:30:52.516Z,71.08
2018-12-20T22:35:55.785Z,70.91
2018-12-20T22:40:59.014Z,71.09
2018-12-20T22:46:02.269Z,70.85
2018-12-20T22:51:05.495Z,71.20
2018-12-20T22:56:08.770Z,71.07
2018-12-20T23:01:11.961Z,71.44
2018-12-20T23:06:15.149Z,71.04
2018-12-20T23:11:18.330Z,71.08
2018-12-20T23:16:21.805Z,71.43
2018-12-20T23:21:25.025Z,71.07
2018-12-20T23:26:28.249Z,70.91
2018-12-20T23:31:31.513Z,70.91
2018-12-20T23:36:34.680Z,71.17
2018-12-20T23:41:37.969Z,71.40
2018-12-20T23:46:41.190Z,71.01
2018-12-20T23:51:45.419Z,71.62
2018-12-20T23:56:48.899Z,71.06
